Time;durP1;ratioP1;P1;durP2;ratioP2;P2;SDS_P1;SDS_P2;PMS_P1;PMS_P2;Temp;Humidity;BMP_temperature;BMP_pressure;BME280_temperature;BME280_humidity;BME280_pressure;Samples;Min_cycle;Max_cycle;Signal;HPM_P1;HPM_P2
2021/08/18 00:00:48;;;;;;;34.17;21.25;;;;;;;14.79;100.00;101492.94;10455790;28;20405;-60
2021/08/18 00:05:51;;;;;;;25.30;18.08;;;;;;;14.96;100.00;101487.44;10454691;28;20077;-60
2021/08/18 00:10:53;;;;;;;26.10;17.58;;;;;;;14.92;100.00;101488.56;10454385;28;20049;-61
2021/08/18 00:15:56;;;;;;;33.28;21.13;;;;;;;14.78;100.00;101484.19;10456070;28;20068;-60
2021/08/18 00:20:58;;;;;;;28.92;20.73;;;;;;;14.82;100.00;101482.19;10455412;28;20052;-61
2021/08/18 00:26:01;;;;;;;36.92;22.63;;;;;;;14.95;100.00;101483.09;10455546;28;20056;-60
2021/08/18 00:31:03;;;;;;;18.38;14.52;;;;;;;14.92;100.00;101480.66;10455357;28;20053;-61
2021/08/18 00:36:06;;;;;;;31.67;21.67;;;;;;;14.89;100.00;101487.94;10455172;28;20077;-60
2021/08/18 00:41:09;;;;;;;28.92;20.75;;;;;;;15.03;100.00;101479.97;10455179;28;20052;-60
2021/08/18 00:46:12;;;;;;;28.50;18.63;;;;;;;14.97;100.00;101470.66;10459442;28;20049;-60
2021/08/18 00:51:15;;;;;;;41.00;23.20;;;;;;;14.86;100.00;101474.00;10462450;28;20049;-61
2021/08/18 00:56:17;;;;;;;24.08;17.77;;;;;;;15.01;100.00;101479.22;10462663;28;20045;-61
2021/08/18 01:01:20;;;;;;;38.92;22.10;;;;;;;14.93;100.00;101473.59;10461722;28;20048;-60
2021/08/18 01:06:23;;;;;;;33.55;22.30;;;;;;;14.94;100.00;101475.28;10461766;28;20049;-60
2021/08/18 01:11:25;;;;;;;21.10;15.70;;;;;;;14.85;100.00;101468.84;10461365;28;20056;-60
2021/08/18 01:16:28;;;;;;;35.75;19.90;;;;;;;14.91;100.00;101470.22;10461685;28;20060;-61
2021/08/18 01:21:31;;;;;;;27.80;19.30;;;;;;;15.06;100.00;101469.22;10461185;28;20057;-60
2021/08/18 01:26:34;;;;;;;31.25;19.40;;;;;;;15.03;100.00;101470.28;10460807;28;20505;-60
2021/08/18 01:31:37;;;;;;;30.40;19.10;;;;;;;14.93;100.00;101482.38;10459738;28;20060;-60
2021/08/18 01:36:40;;;;;;;31.38;20.75;;;;;;;14.95;100.00;101477.00;10460312;28;20049;-60
2021/08/18 01:41:42;;;;;;;33.47;21.77;;;;;;;14.91;100.00;101483.41;10460180;28;20048;-60
2021/08/18 01:46:44;;;;;;;30.83;19.90;;;;;;;15.00;100.00;101478.38;10459924;28;20503;-60
2021/08/18 01:51:47;;;;;;;34.35;19.90;;;;;;;15.15;100.00;101487.06;10459942;28;20055;-61
2021/08/18 01:56:50;;;;;;;39.03;20.85;;;;;;;14.95;100.00;101482.28;10459078;28;20493;-61
2021/08/18 02:01:52;;;;;;;17.08;13.30;;;;;;;15.06;100.00;101482.41;10458212;28;20413;-60
2021/08/18 02:06:55;;;;;;;16.27;12.70;;;;;;;15.17;100.00;101490.44;10459418;28;20049;-61
2021/08/18 02:11:57;;;;;;;21.52;14.60;;;;;;;14.97;100.00;101488.28;10459478;28;20045;-60
2021/08/18 02:17:00;;;;;;;13.65;10.48;;;;;;;15.12;100.00;101473.25;10458747;28;20059;-60
2021/08/18 02:22:02;;;;;;;12.85;10.65;;;;;;;14.86;100.00;101473.13;10459264;28;20405;-60
2021/08/18 02:27:05;;;;;;;13.35;9.05;;;;;;;14.78;100.00;101476.28;10458347;28;20049;-60
2021/08/18 02:32:07;;;;;;;10.43;8.23;;;;;;;14.76;100.00;101474.69;10458459;28;20041;-61
2021/08/18 02:37:10;;;;;;;8.13;6.50;;;;;;;14.98;100.00;101461.81;10457844;28;20040;-60
2021/08/18 02:42:12;;;;;;;16.23;8.73;;;;;;;14.76;100.00;101469.41;10458679;28;20052;-61
2021/08/18 02:47:15;;;;;;;6.95;5.32;;;;;;;14.81;100.00;101480.50;10457871;28;20049;-60
2021/08/18 02:52:17;;;;;;;9.60;6.03;;;;;;;14.66;100.00;101485.81;10457621;28;20527;-60
2021/08/18 02:57:19;;;;;;;6.57;5.47;;;;;;;14.52;100.00;101474.44;10457304;28;20480;-60
2021/08/18 03:02:23;;;;;;;5.30;4.47;;;;;;;14.56;100.00;101466.25;10457618;28;20052;-60
2021/08/18 03:07:25;;;;;;;5.78;5.18;;;;;;;14.70;100.00;101467.19;10456521;28;20056;-61
2021/08/18 03:12:28;;;;;;;12.30;5.20;;;;;;;14.59;100.00;101471.34;10457339;28;20041;-61
2021/08/18 03:17:30;;;;;;;8.68;4.18;;;;;;;14.88;100.00;101475.69;10455854;28;20417;-57
2021/08/18 03:22:33;;;;;;;6.18;5.53;;;;;;;14.58;100.00;101471.41;10457399;28;20052;-58
2021/08/18 03:27:36;;;;;;;7.07;4.70;;;;;;;14.60;100.00;101461.66;10456632;28;20055;-57
2021/08/18 03:32:38;;;;;;;5.95;4.57;;;;;;;14.76;100.00;101472.03;10456625;28;20052;-58
2021/08/18 03:37:40;;;;;;;8.23;5.18;;;;;;;14.38;100.00;101470.88;10456245;28;20041;-58
2021/08/18 03:42:43;;;;;;;6.00;5.35;;;;;;;14.48;100.00;101479.06;10456304;28;20056;-57
2021/08/18 03:47:45;;;;;;;7.15;4.70;;;;;;;14.48;100.00;101479.91;10456294;28;20064;-58
2021/08/18 03:52:48;;;;;;;10.40;5.65;;;;;;;14.36;100.00;101475.41;10456572;28;20045;-58
2021/08/18 03:57:50;;;;;;;9.25;4.72;;;;;;;14.49;100.00;101478.09;10455863;28;20053;-58
2021/08/18 04:02:53;;;;;;;7.03;5.05;;;;;;;14.26;100.00;101474.28;10456063;28;20061;-58
2021/08/18 04:07:56;;;;;;;5.13;4.70;;;;;;;14.54;100.00;101470.78;10455757;28;20122;-58
2021/08/18 04:12:59;;;;;;;7.40;6.05;;;;;;;14.40;100.00;101469.00;10456045;28;20048;-58
2021/08/18 04:18:02;;;;;;;13.10;8.80;;;;;;;14.36;100.00;101482.47;10457605;28;20060;-58
2021/08/18 04:23:04;;;;;;;10.57;7.63;;;;;;;14.33;100.00;101478.22;10463297;28;20397;-60
2021/08/18 04:28:07;;;;;;;11.50;7.53;;;;;;;14.41;100.00;101472.50;10463059;28;20211;-60
2021/08/18 04:33:09;;;;;;;8.38;7.00;;;;;;;14.42;100.00;101476.78;10463143;28;20407;-60
2021/08/18 04:38:11;;;;;;;14.38;5.85;;;;;;;14.49;100.00;101473.69;10462533;28;20389;-60
2021/08/18 04:43:15;;;;;;;8.98;6.38;;;;;;;14.44;100.00;101472.28;10462937;28;20054;-61
2021/08/18 04:48:18;;;;;;;9.13;7.10;;;;;;;14.41;100.00;101478.59;10462613;28;20056;-61
2021/08/18 04:53:20;;;;;;;9.13;5.97;;;;;;;14.30;100.00;101476.63;10462255;28;20481;-61
2021/08/18 04:58:22;;;;;;;6.32;4.90;;;;;;;14.46;100.00;101471.25;10462154;28;20045;-60
2021/08/18 05:03:24;;;;;;;9.48;6.22;;;;;;;14.53;100.00;101474.34;10460985;28;20049;-60
2021/08/18 05:08:27;;;;;;;7.82;5.97;;;;;;;14.50;100.00;101483.28;10462147;28;20447;-60
2021/08/18 05:13:32;;;;;;;6.97;5.47;;;;;;;14.47;100.00;101472.94;10461839;28;20128;-61
2021/08/18 05:18:35;;;;;;;8.70;6.82;;;;;;;14.56;100.00;101468.00;10461468;28;20044;-61
2021/08/18 05:23:37;;;;;;;7.75;5.40;;;;;;;14.74;100.00;101468.66;10461234;28;20059;-60
2021/08/18 05:28:39;;;;;;;11.25;7.72;;;;;;;14.82;100.00;101463.75;10460314;28;20059;-61
2021/08/18 05:33:42;;;;;;;18.50;9.07;;;;;;;14.79;100.00;101469.22;10460701;28;20052;-61
2021/08/18 05:38:47;;;;;;;16.35;9.15;;;;;;;14.88;100.00;101466.00;10460831;28;20049;-61
2021/08/18 05:43:51;;;;;;;11.35;8.40;;;;;;;14.97;100.00;101468.03;10460393;28;20049;-60
2021/08/18 05:48:54;;;;;;;9.85;8.50;;;;;;;15.00;100.00;101453.81;10459127;28;20057;-60
2021/08/18 05:53:56;;;;;;;12.35;7.22;;;;;;;14.97;100.00;101464.56;10460178;28;20053;-61
2021/08/18 05:58:58;;;;;;;11.25;8.45;;;;;;;14.95;100.00;101469.09;10460010;28;20048;-62
2021/08/18 06:04:01;;;;;;;14.80;8.90;;;;;;;15.12;100.00;101471.44;10459826;28;20045;-60
2021/08/18 06:09:03;;;;;;;11.70;7.32;;;;;;;15.22;100.00;101469.88;10459394;28;20060;-60
2021/08/18 06:14:06;;;;;;;14.57;8.90;;;;;;;15.21;100.00;101462.06;10457942;28;20064;-60
2021/08/18 06:19:08;;;;;;;16.63;9.88;;;;;;;15.38;100.00;101466.22;10458756;28;20053;-60
2021/08/18 06:24:17;;;;;;;14.25;11.60;;;;;;;15.41;100.00;101472.13;10458871;28;20068;-61
2021/08/18 06:29:21;;;;;;;15.25;11.07;;;;;;;15.57;100.00;101469.31;10458472;28;20049;-62
2021/08/18 06:34:23;;;;;;;12.80;10.25;;;;;;;15.71;100.00;101472.81;10458240;28;20049;-61
2021/08/18 06:39:25;;;;;;;18.40;14.77;;;;;;;15.78;100.00;101482.91;10458031;28;20053;-61
2021/08/18 06:44:28;;;;;;;17.98;12.00;;;;;;;15.82;100.00;101486.19;10457161;28;20045;-61
2021/08/18 06:49:30;;;;;;;22.33;16.77;;;;;;;15.66;100.00;101482.84;10457727;28;20057;-61
2021/08/18 06:54:33;;;;;;;19.17;14.75;;;;;;;15.56;100.00;101494.00;10457890;28;20131;-61
2021/08/18 06:59:35;;;;;;;16.65;10.98;;;;;;;15.65;100.00;101497.84;10456022;28;20048;-61
2021/08/18 07:04:37;;;;;;;21.15;11.88;;;;;;;15.63;100.00;101494.44;10457484;28;20060;-61
2021/08/18 07:09:39;;;;;;;13.95;10.52;;;;;;;15.65;100.00;101503.13;10456918;28;20048;-60
2021/08/18 07:14:42;;;;;;;20.85;9.85;;;;;;;15.81;100.00;101500.31;10457352;28;20063;-60
2021/08/18 07:19:44;;;;;;;13.48;9.13;;;;;;;15.90;100.00;101494.41;10455520;28;20393;-61
2021/08/18 07:24:46;;;;;;;19.45;12.50;;;;;;;15.77;100.00;101496.19;10456974;28;20049;-61
2021/08/18 07:29:49;;;;;;;14.32;11.40;;;;;;;16.05;100.00;101491.66;10455578;28;20052;-61
2021/08/18 07:34:51;;;;;;;13.35;8.52;;;;;;;16.16;100.00;101484.66;10456362;28;20048;-61
2021/08/18 07:39:54;;;;;;;13.93;8.88;;;;;;;16.55;100.00;101492.50;10456491;28;20049;-61
2021/08/18 07:44:57;;;;;;;10.13;9.13;;;;;;;16.44;100.00;101489.78;10456339;28;20464;-61
2021/08/18 07:49:59;;;;;;;11.50;9.95;;;;;;;16.70;100.00;101493.22;10456457;28;20055;-60
2021/08/18 07:55:02;;;;;;;18.85;10.75;;;;;;;16.77;100.00;101485.69;10462312;28;20123;-61
2021/08/18 08:00:07;;;;;;;16.40;9.93;;;;;;;17.30;100.00;101482.69;10462987;28;20493;-61
2021/08/18 08:05:11;;;;;;;15.88;10.43;;;;;;;17.51;100.00;101473.13;10464671;28;20124;-61
2021/08/18 08:10:14;;;;;;;13.50;9.48;;;;;;;17.70;100.00;101490.25;10463773;28;20489;-61
2021/08/18 08:15:16;;;;;;;15.25;9.57;;;;;;;17.93;100.00;101486.72;10464078;28;20063;-60
2021/08/18 08:20:19;;;;;;;10.25;8.55;;;;;;;17.90;100.00;101494.91;10463404;28;20049;-60
2021/08/18 08:25:21;;;;;;;10.75;8.95;;;;;;;18.13;100.00;101493.13;10463850;28;20052;-61
2021/08/18 08:30:24;;;;;;;11.70;10.13;;;;;;;17.89;100.00;101498.53;10463195;28;20057;-61
2021/08/18 08:35:26;;;;;;;12.60;11.00;;;;;;;17.65;100.00;101493.25;10463383;28;20041;-60
2021/08/18 08:40:28;;;;;;;11.38;10.18;;;;;;;17.94;100.00;101490.22;10462496;28;20061;-62
2021/08/18 08:45:31;;;;;;;10.35;9.23;;;;;;;18.14;100.00;101492.16;10462643;28;20401;-62
2021/08/18 08:50:33;;;;;;;11.65;10.55;;;;;;;17.85;100.00;101485.59;10462274;28;20052;-61
2021/08/18 08:55:36;;;;;;;14.77;9.23;;;;;;;18.01;100.00;101494.09;10460905;28;20048;-61
2021/08/18 09:00:38;;;;;;;8.35;7.35;;;;;;;18.31;100.00;101497.94;10462020;28;20045;-61
2021/08/18 09:05:45;;;;;;;9.75;8.75;;;;;;;18.19;100.00;101494.47;10460806;28;20102;-59
2021/08/18 09:11:08;;;;;;;12.48;9.43;;;;;;;18.43;100.00;101489.00;10462032;28;20051;-59
2021/08/18 09:16:11;;;;;;;15.63;12.07;;;;;;;18.45;100.00;101491.53;10460495;28;20581;-59
2021/08/18 09:21:36;;;;;;;13.23;11.82;;;;;;;18.38;100.00;101494.66;10461718;28;20088;-60
2021/08/18 09:26:46;;;;;;;17.83;13.38;;;;;;;18.43;100.00;101488.19;10460877;28;20052;-59
2021/08/18 09:31:48;;;;;;;17.00;15.25;;;;;;;18.18;100.00;101490.94;10461470;28;20048;-60
2021/08/18 09:36:52;;;;;;;16.50;14.43;;;;;;;18.62;99.26;101487.53;10443248;28;20099;-59
2021/08/18 09:41:54;;;;;;;14.82;13.15;;;;;;;19.11;97.73;101478.25;10459586;28;20059;-59
2021/08/18 09:47:06;;;;;;;13.88;12.48;;;;;;;19.49;94.25;101467.06;10458948;28;20064;-59
2021/08/18 09:52:08;;;;;;;10.13;9.13;;;;;;;20.21;91.82;101469.84;10458568;28;20425;-60
2021/08/18 09:57:11;;;;;;;9.68;8.88;;;;;;;20.36;89.84;101451.69;10459742;28;20053;-59
2021/08/18 10:02:13;;;;;;;8.63;7.32;;;;;;;20.53;86.20;101455.50;10459702;28;20049;-59
2021/08/18 10:07:17;;;;;;;8.10;7.35;;;;;;;20.27;86.72;101448.00;10459521;28;20048;-59
2021/08/18 10:12:19;;;;;;;8.82;8.02;;;;;;;20.31;87.91;101449.44;10459401;28;20052;-59
2021/08/18 10:17:21;;;;;;;18.33;8.95;;;;;;;20.39;90.03;101441.63;10459111;28;20069;-59
2021/08/18 10:22:28;;;;;;;12.60;8.88;;;;;;;19.77;87.05;101442.63;10459261;28;20056;-59
2021/08/18 10:27:48;;;;;;;9.27;8.38;;;;;;;19.93;89.77;101452.78;10458927;28;20045;-59
2021/08/18 10:32:52;;;;;;;12.98;8.02;;;;;;;19.61;91.99;101448.41;10457210;28;20489;-60
2021/08/18 10:38:26;;;;;;;10.43;9.00;;;;;;;18.83;91.95;101453.13;10457005;28;20045;-61
2021/08/18 10:43:50;;;;;;;9.60;8.70;;;;;;;18.87;93.18;101457.22;10458019;28;20053;-59
2021/08/18 10:48:56;;;;;;;8.73;7.88;;;;;;;18.63;94.80;101457.41;10458431;28;20076;-59
2021/08/18 10:53:58;;;;;;;11.73;10.25;;;;;;;18.74;96.25;101460.88;10457591;28;20049;-59
2021/08/18 10:59:33;;;;;;;10.32;9.38;;;;;;;18.94;95.29;101450.44;10457235;28;20061;-59
2021/08/18 11:04:44;;;;;;;12.38;10.90;;;;;;;18.97;96.83;101449.38;10457206;28;20056;-59
2021/08/18 11:09:49;;;;;;;11.13;10.02;;;;;;;19.27;95.97;101440.66;10455981;28;20053;-59
2021/08/18 11:14:52;;;;;;;11.55;10.45;;;;;;;19.29;94.98;101441.34;10457284;28;20059;-58
2021/08/18 11:19:54;;;;;;;9.38;8.48;;;;;;;19.59;95.93;101442.38;10456814;28;20045;-60
2021/08/18 11:25:02;;;;;;;7.53;6.78;;;;;;;20.61;88.94;101442.38;10455670;28;20056;-59
2021/08/18 11:30:06;;;;;;;3.58;3.28;;;;;;;20.34;86.95;101438.53;10455638;28;20045;-58
2021/08/18 11:35:08;;;;;;;7.05;3.08;;;;;;;20.85;82.86;101439.31;10456681;28;20048;-59
2021/08/18 11:40:18;;;;;;;5.13;3.30;;;;;;;20.48;84.18;101439.94;10454947;28;20056;-58
2021/08/18 11:45:20;;;;;;;5.55;3.40;;;;;;;20.60;82.06;101428.19;10455411;28;20049;-59
2021/08/18 11:50:23;;;;;;;3.50;3.20;;;;;;;20.52;82.85;101433.38;10456233;28;20060;-59
2021/08/18 11:55:29;;;;;;;4.20;3.90;;;;;;;20.23;81.46;101435.97;10455419;28;20053;-59
2021/08/18 12:00:32;;;;;;;5.45;5.03;;;;;;;20.25;83.85;101425.22;10455765;28;20493;-59
2021/08/18 12:05:39;;;;;;;6.70;5.70;;;;;;;20.20;83.23;101429.09;10456438;28;20128;-59
2021/08/18 12:10:46;;;;;;;5.30;4.53;;;;;;;20.60;82.50;101416.72;10455688;28;20416;-59
2021/08/18 12:15:52;;;;;;;5.50;5.07;;;;;;;20.53;83.44;101407.63;10455351;28;20061;-59
2021/08/18 12:20:55;;;;;;;5.90;5.28;;;;;;;19.74;85.55;101421.63;10456109;28;20114;-59
2021/08/18 12:25:58;;;;;;;5.65;5.10;;;;;;;19.89;84.81;101409.72;10454105;28;20049;-59
2021/08/18 12:31:02;;;;;;;6.20;5.57;;;;;;;20.35;82.32;101402.97;10455933;28;20053;-59
2021/08/18 12:36:12;;;;;;;5.32;4.82;;;;;;;20.49;81.58;101401.72;10455291;28;20057;-59
2021/08/18 12:41:14;;;;;;;5.00;4.55;;;;;;;20.97;81.55;101398.25;10460823;28;20428;-60
2021/08/18 12:46:23;;;;;;;5.35;4.82;;;;;;;21.78;76.49;101394.31;10462578;28;20489;-59
2021/08/18 12:51:26;;;;;;;5.43;4.35;;;;;;;21.13;76.23;101400.38;10462588;28;20049;-59
2021/08/18 12:56:29;;;;;;;5.93;4.68;;;;;;;21.33;74.87;101398.50;10462329;28;20072;-59
2021/08/18 13:01:31;;;;;;;5.57;5.07;;;;;;;21.25;76.70;101408.16;10462417;28;20045;-60
2021/08/18 13:06:34;;;;;;;6.13;5.15;;;;;;;20.92;76.56;101413.81;10461851;28;20044;-59
2021/08/18 13:11:36;;;;;;;4.95;4.00;;;;;;;21.33;75.33;101406.50;10461848;28;20136;-58
2021/08/18 13:16:38;;;;;;;7.00;4.55;;;;;;;21.18;76.68;101399.91;10462302;28;20057;-59
2021/08/18 13:21:41;;;;;;;7.13;4.75;;;;;;;21.24;75.19;101385.22;10461343;28;20114;-59
2021/08/18 13:26:45;;;;;;;6.45;4.28;;;;;;;20.53;80.47;101383.69;10460863;28;20045;-60
2021/08/18 13:31:47;;;;;;;6.53;4.15;;;;;;;20.31;77.09;101380.31;10461266;28;20053;-59
2021/08/18 13:36:50;;;;;;;5.18;4.05;;;;;;;19.85;77.58;101382.56;10460160;28;20401;-59
2021/08/18 13:41:53;;;;;;;5.20;4.25;;;;;;;19.76;80.84;101377.22;10460709;28;20052;-59
2021/08/18 13:46:55;;;;;;;5.00;3.67;;;;;;;20.81;77.34;101374.03;10458963;28;20055;-59
2021/08/18 13:51:58;;;;;;;6.53;3.83;;;;;;;20.82;77.95;101365.09;10460180;28;20052;-59
2021/08/18 13:57:00;;;;;;;5.78;4.90;;;;;;;20.26;79.93;101377.22;10459995;28;20049;-59
2021/08/18 14:02:03;;;;;;;4.60;3.95;;;;;;;20.22;77.64;101374.00;10458996;28;20049;-59
2021/08/18 14:07:05;;;;;;;7.60;4.05;;;;;;;19.63;79.41;101377.41;10459805;28;20131;-59
2021/08/18 14:12:08;;;;;;;4.43;4.03;;;;;;;19.74;79.33;101366.69;10459315;28;20408;-58
2021/08/18 14:17:10;;;;;;;4.93;4.43;;;;;;;20.04;78.48;101375.63;10459092;28;20053;-59
2021/08/18 14:22:12;;;;;;;6.10;3.92;;;;;;;21.11;73.86;101362.38;10459214;28;20393;-59
2021/08/18 14:27:15;;;;;;;6.47;4.75;;;;;;;20.52;77.88;101361.56;10459118;28;20049;-59
2021/08/18 14:32:17;;;;;;;6.72;4.15;;;;;;;20.86;74.49;101366.47;10458733;28;20055;-59
2021/08/18 14:37:19;;;;;;;4.47;3.58;;;;;;;20.34;77.57;101371.19;10458250;28;20049;-59
2021/08/18 14:42:22;;;;;;;5.03;3.67;;;;;;;19.80;78.59;101370.66;10458016;28;20045;-59
2021/08/18 14:47:24;;;;;;;4.40;3.60;;;;;;;20.08;78.29;101373.53;10457843;28;20044;-60
2021/08/18 14:52:27;;;;;;;3.72;3.38;;;;;;;19.62;79.61;101376.56;10458064;28;20054;-59
2021/08/18 14:57:29;;;;;;;4.75;3.10;;;;;;;19.42;78.26;101375.63;10457635;28;20053;-59
2021/08/18 15:02:33;;;;;;;3.47;3.03;;;;;;;19.46;79.45;101379.69;10456589;28;20044;-59
2021/08/18 15:07:36;;;;;;;4.72;2.92;;;;;;;19.64;78.95;101374.59;10457831;28;20063;-59
2021/08/18 15:12:38;;;;;;;4.97;3.55;;;;;;;20.03;78.54;101373.94;10457026;28;20053;-59
2021/08/18 15:17:40;;;;;;;7.97;4.05;;;;;;;19.91;80.98;101362.56;10456786;28;20061;-59
2021/08/18 15:22:43;;;;;;;3.53;3.22;;;;;;;19.44;81.39;101363.06;10456895;28;20045;-59
2021/08/18 15:27:48;;;;;;;8.02;3.80;;;;;;;19.21;81.21;101366.84;10456923;28;20109;-59
2021/08/18 15:32:50;;;;;;;3.53;2.80;;;;;;;19.37;80.72;101369.03;10456884;28;20056;-59
2021/08/18 15:37:57;;;;;;;10.13;4.15;;;;;;;19.11;80.69;101366.78;10456409;28;20053;-59
2021/08/18 15:43:01;;;;;;;3.10;2.80;;;;;;;19.01;80.46;101358.75;10456730;28;20056;-59
2021/08/18 15:48:06;;;;;;;2.65;2.45;;;;;;;18.47;80.76;101362.34;10456298;28;20045;-58
2021/08/18 15:53:08;;;;;;;6.72;2.92;;;;;;;18.95;80.97;101359.28;10455036;28;20060;-59
2021/08/18 15:58:11;;;;;;;3.63;3.33;;;;;;;18.93;80.67;101362.06;10456198;28;20041;-59
2021/08/18 16:03:13;;;;;;;4.55;3.00;;;;;;;18.73;80.85;101361.03;10456226;28;20052;-59
2021/08/18 16:08:16;;;;;;;3.90;3.22;;;;;;;19.09;81.75;101353.63;10455900;28;20119;-60
2021/08/18 16:13:18;;;;;;;3.78;2.70;;;;;;;18.90;82.32;101358.81;10457209;28;20049;-60
2021/08/18 16:18:21;;;;;;;3.40;2.90;;;;;;;18.47;82.84;101357.88;10463956;28;20049;-59
2021/08/18 16:23:23;;;;;;;3.05;2.53;;;;;;;18.16;83.44;101359.53;10463687;28;20041;-59
2021/08/18 16:28:26;;;;;;;5.03;3.10;;;;;;;18.06;84.76;101351.50;10463768;28;20052;-60
2021/08/18 16:33:28;;;;;;;2.97;2.70;;;;;;;18.31;84.29;101344.22;10463043;28;20048;-60
2021/08/18 16:38:33;;;;;;;6.80;2.85;;;;;;;18.05;85.88;101347.13;10462715;28;20051;-61
2021/08/18 16:43:35;;;;;;;4.15;2.95;;;;;;;18.04;87.56;101337.53;10461643;28;20045;-60
2021/08/18 16:48:37;;;;;;;5.90;3.33;;;;;;;18.01;87.15;101345.72;10461508;28;20056;-60
2021/08/18 16:53:40;;;;;;;4.72;3.90;;;;;;;17.98;87.70;101338.84;10462942;28;20053;-60
2021/08/18 16:58:43;;;;;;;3.22;2.92;;;;;;;18.01;88.16;101338.59;10462099;28;20048;-60
2021/08/18 17:03:45;;;;;;;8.00;3.60;;;;;;;18.19;86.80;101338.09;10462131;28;20044;-59
2021/08/18 17:08:47;;;;;;;10.32;3.45;;;;;;;18.29;85.13;101332.88;10462012;28;20052;-58
2021/08/18 17:13:50;;;;;;;5.63;3.45;;;;;;;17.80;89.14;101332.34;10461301;28;20067;-60
2021/08/18 17:18:53;;;;;;;6.05;3.63;;;;;;;17.85;85.20;101332.81;10461581;28;20071;-60
2021/08/18 17:24:00;;;;;;;5.57;3.65;;;;;;;17.81;85.40;101323.44;10459900;28;20077;-60
2021/08/18 17:29:02;;;;;;;6.85;3.58;;;;;;;17.81;85.63;101323.44;10460677;28;20056;-59
2021/08/18 17:34:07;;;;;;;5.53;3.50;;;;;;;17.74;86.46;101320.44;10461379;28;20045;-60
2021/08/18 17:39:09;;;;;;;4.30;3.42;;;;;;;17.72;85.56;101313.56;10461444;28;20053;-60
2021/08/18 17:44:12;;;;;;;5.72;3.47;;;;;;;17.71;87.11;101322.50;10460467;28;20057;-59
2021/08/18 17:49:14;;;;;;;7.40;3.53;;;;;;;17.75;85.17;101313.31;10460181;28;20049;-59
2021/08/18 17:54:17;;;;;;;7.60;3.20;;;;;;;17.74;86.05;101314.31;10460115;28;20485;-59
2021/08/18 17:59:19;;;;;;;5.35;3.50;;;;;;;17.77;86.82;101314.03;10459842;28;20052;-60
2021/08/18 18:04:21;;;;;;;5.60;3.58;;;;;;;17.48;86.95;101314.53;10460197;28;20045;-59
2021/08/18 18:09:24;;;;;;;9.57;3.88;;;;;;;17.77;86.42;101298.16;10459571;28;20045;-58
2021/08/18 18:14:26;;;;;;;6.90;4.28;;;;;;;17.59;87.50;101297.81;10459934;28;20064;-59
2021/08/18 18:19:29;;;;;;;8.68;3.92;;;;;;;17.66;87.16;101300.81;10458590;28;20045;-59
2021/08/18 18:24:32;;;;;;;4.85;4.20;;;;;;;17.50;89.17;101302.03;10459008;28;20053;-60
2021/08/18 18:29:35;;;;;;;6.10;3.90;;;;;;;17.64;88.11;101303.59;10458959;28;20049;-59
2021/08/18 18:34:39;;;;;;;9.35;5.25;;;;;;;17.45;88.24;101305.06;10458459;28;20420;-59
2021/08/18 18:39:41;;;;;;;10.05;5.10;;;;;;;17.40;88.69;101306.34;10458247;28;20071;-60
2021/08/18 18:44:44;;;;;;;6.68;4.65;;;;;;;17.18;91.99;101308.03;10458189;28;20049;-59
2021/08/18 18:49:46;;;;;;;8.70;5.13;;;;;;;17.26;90.20;101304.78;10458003;28;20061;-59
2021/08/18 18:54:49;;;;;;;6.22;4.57;;;;;;;17.34;92.04;101309.50;10457812;28;20060;-59
2021/08/18 18:59:51;;;;;;;6.70;4.80;;;;;;;17.06;93.87;101296.59;10457300;28;20044;-59
2021/08/18 19:04:54;;;;;;;6.28;4.50;;;;;;;17.33;92.31;101305.16;10457709;28;20079;-60
2021/08/18 19:09:58;;;;;;;6.53;4.28;;;;;;;17.16;95.21;101309.09;10456911;28;20140;-60
2021/08/18 19:15:17;;;;;;;7.53;4.00;;;;;;;16.92;97.19;101306.56;10457623;28;20085;-60
2021/08/18 19:20:19;;;;;;;6.50;4.00;;;;;;;16.90;98.35;101307.50;10456806;28;20064;-60
2021/08/18 19:25:22;;;;;;;10.30;4.57;;;;;;;16.93;100.00;101301.16;10456749;28;20045;-60
2021/08/18 19:30:24;;;;;;;6.28;3.90;;;;;;;16.74;100.00;101296.38;10456811;28;20052;-60
2021/08/18 19:35:26;;;;;;;6.85;3.85;;;;;;;16.75;100.00;101297.22;10456606;28;20056;-59
2021/08/18 19:40:29;;;;;;;10.55;4.72;;;;;;;16.81;100.00;101294.09;10456303;28;20492;-60
2021/08/18 19:45:32;;;;;;;6.30;3.80;;;;;;;16.96;99.74;101292.97;10455212;28;20060;-60
2021/08/18 19:50:34;;;;;;;6.07;4.38;;;;;;;16.80;100.00;101292.44;10461728;28;20053;-60
2021/08/18 19:55:36;;;;;;;11.30;4.80;;;;;;;16.76;100.00;101289.19;10464886;28;20393;-60
2021/08/18 20:00:40;;;;;;;5.13;4.05;;;;;;;16.69;100.00;101286.16;10464536;28;20045;-59
2021/08/18 20:05:42;;;;;;;5.88;4.07;;;;;;;16.93;100.00;101285.28;10464699;28;20052;-60
2021/08/18 20:10:45;;;;;;;4.68;4.13;;;;;;;16.83;100.00;101282.47;10464011;28;20056;-59
2021/08/18 20:15:47;;;;;;;8.18;5.95;;;;;;;17.09;97.79;101283.13;10464325;28;20057;-60
2021/08/18 20:20:49;;;;;;;12.20;8.52;;;;;;;16.97;98.80;101283.25;10462591;28;20103;-60
2021/08/18 20:25:52;;;;;;;8.57;6.93;;;;;;;17.15;98.25;101281.00;10463224;28;20489;-60
2021/08/18 20:30:54;;;;;;;9.38;7.88;;;;;;;17.18;98.28;101275.44;10463201;28;20052;-61
2021/08/18 20:35:57;;;;;;;9.90;8.25;;;;;;;17.17;97.06;101281.69;10463210;28;20087;-60
2021/08/18 20:40:59;;;;;;;12.23;8.52;;;;;;;17.15;97.00;101279.19;10463155;28;20053;-60
2021/08/18 20:46:02;;;;;;;14.68;10.88;;;;;;;17.08;97.62;101293.84;10462780;28;20049;-60
2021/08/18 20:51:05;;;;;;;9.90;8.80;;;;;;;17.09;97.38;101290.22;10463039;28;20079;-59
2021/08/18 20:56:08;;;;;;;15.35;12.05;;;;;;;17.03;98.56;101275.69;10462477;28;20041;-60
2021/08/18 21:01:10;;;;;;;17.58;10.70;;;;;;;17.07;99.04;101271.00;10461822;28;20045;-59
2021/08/18 21:06:13;;;;;;;13.27;10.30;;;;;;;17.21;97.50;101277.84;10462198;28;20144;-60
2021/08/18 21:11:16;;;;;;;15.88;12.35;;;;;;;17.03;98.19;101282.75;10461234;28;20045;-60
2021/08/18 21:16:18;;;;;;;17.08;12.15;;;;;;;17.08;97.66;101281.44;10461721;28;20057;-61
2021/08/18 21:21:21;;;;;;;14.02;9.80;;;;;;;17.20;98.22;101274.38;10461486;28;20107;-59
2021/08/18 21:26:23;;;;;;;13.77;11.35;;;;;;;17.08;97.39;101273.50;10461346;28;20052;-60
2021/08/18 21:31:25;;;;;;;16.80;12.30;;;;;;;17.12;98.38;101273.28;10461337;28;20056;-60
2021/08/18 21:36:28;;;;;;;16.83;13.10;;;;;;;17.07;99.38;101274.47;10460938;28;20135;-60
2021/08/18 21:41:30;;;;;;;17.65;12.75;;;;;;;17.26;97.41;101278.31;10460409;28;20044;-60
2021/08/18 21:46:32;;;;;;;16.27;12.90;;;;;;;17.02;99.80;101273.97;10460450;28;20048;-59
2021/08/18 21:51:35;;;;;;;16.02;12.52;;;;;;;17.27;97.50;101285.31;10460635;28;20056;-60
2021/08/18 21:56:37;;;;;;;14.32;10.75;;;;;;;17.18;98.48;101275.44;10460099;28;20059;-60
2021/08/18 22:01:39;;;;;;;17.73;13.02;;;;;;;17.07;100.00;101271.81;10459442;28;20053;-60
2021/08/18 22:06:42;;;;;;;16.50;13.45;;;;;;;17.13;100.00;101269.66;10459688;28;20064;-60
2021/08/18 22:11:44;;;;;;;18.70;14.73;;;;;;;17.12;100.00;101268.00;10459474;28;20056;-60
2021/08/18 22:16:47;;;;;;;20.67;13.02;;;;;;;17.08;99.53;101272.69;10457936;28;20425;-60
2021/08/18 22:21:49;;;;;;;13.93;12.50;;;;;;;17.03;99.30;101274.81;10459196;28;20040;-60
2021/08/18 22:26:53;;;;;;;12.80;11.07;;;;;;;17.02;100.00;101270.50;10459218;28;20045;-60
2021/08/18 22:32:15;;;;;;;21.45;15.00;;;;;;;17.06;100.00;101270.16;10459107;28;20107;-60
2021/08/18 22:37:17;;;;;;;18.10;11.60;;;;;;;17.01;100.00;101267.03;10458914;28;20056;-59
2021/08/18 22:42:20;;;;;;;14.40;12.38;;;;;;;17.07;100.00;101271.00;10458515;28;20048;-59
2021/08/18 22:47:22;;;;;;;15.23;11.90;;;;;;;16.99;100.00;101268.91;10457880;28;20056;-60
2021/08/18 22:52:24;;;;;;;19.05;13.43;;;;;;;17.11;100.00;101258.38;10440233;28;20045;-60